Dieses Jahr (2019) konnten wir eine sehr erfolgreiche Flugausbildung durchführen.
Drei Flugschüler haben ihren ersten Alleinflug gemacht und somit den ersten Ausbildungsabschnitt beendet.
Auch im Bereich Motorflug hat sich etwas getan. Bernd Ewert hat seine Klassenberechtigung TMG (Motorsegler) erworben.

Herzlichen Glückwunsch !!

 

Alleinflug von Florian Götzl am 30. März 2019



Alleinflug von Claus Scholz (rechts) am 05. Mai 2019



Alleinflug von Fabian Kälberer am 30. Juni 2019



Fluglehrer (links) und Flugschüler

WebCam

  
Kamera Halle
Kamera Vorfeld

GPS Triangle WM Sports Class

AeroClub Göppingen-Salach e.V.
Ausrichter der Modellflug
GPS Triangle-WM 2020

Wetter EDDS

METAR

EDDS 291450Z 23009KT 190V260 9999 -SHRA FEW022 SCT030CB 05/01 Q1011 TEMPO 25015G25KT SHRA =
EDDS 291100Z 2912/3012 23010KT 9999 BKN045 PROB30 TEMPO 2912/2918 24020G35KT 2000 SHGSRA BKN012CB BECMG 2920/2922 22005KT


TAF

EDDS 291100Z 2912/3012 23010KT 9999 BKN045 PROB30 TEMPO 2912/2918 24020G35KT 2000 SHGSRA BKN012CB BECMG 2920/2922 22005KT =


SR/SS

06:55 / 16:13 UTC
(EDSO 29-01-2020)